Time;durP1;ratioP1;P1;durP2;ratioP2;P2;SDS_P1;SDS_P2;PMS_P1;PMS_P2;Temp;Humidity;BMP_temperature;BMP_pressure;BME280_temperature;BME280_humidity;BME280_pressure;Samples;Min_cycle;Max_cycle;Signal;HPM_P1;HPM_P2
2022/09/22 00:01:07;;;;;;;3.97;1.70;;;7.30;99.90;;;;;;5076988;28;20063;-73
2022/09/22 00:03:35;;;;;;;2.92;1.40;;;7.20;99.90;;;;;;5077493;28;20392;-73
2022/09/22 00:06:08;;;;;;;2.97;1.52;;;7.30;99.90;;;;;;5077303;28;20124;-74
2022/09/22 00:08:37;;;;;;;3.22;1.42;;;7.30;99.90;;;;;;5077234;28;20063;-74
2022/09/22 00:11:12;;;;;;;2.47;1.00;;;7.50;99.90;;;;;;5076710;28;20056;-74
2022/09/22 00:13:39;;;;;;;3.03;1.40;;;7.30;99.90;;;;;;5075837;28;20055;-73
2022/09/22 00:16:08;;;;;;;2.30;1.50;;;7.20;99.90;;;;;;5077421;28;20045;-74
2022/09/22 00:18:35;;;;;;;2.33;1.05;;;7.20;99.90;;;;;;5076510;28;20048;-74
2022/09/22 00:21:29;;;;;;;2.65;1.48;;;7.20;99.90;;;;;;5058917;28;20075;-74
2022/09/22 00:23:56;;;;;;;2.03;1.20;;;7.00;99.90;;;;;;5073447;28;20060;-73
2022/09/22 00:26:23;;;;;;;2.42;1.27;;;6.90;99.90;;;;;;5077181;28;20362;-74
2022/09/22 00:28:51;;;;;;;4.10;1.40;;;6.80;99.90;;;;;;5076354;28;20044;-74
2022/09/22 00:31:21;;;;;;;3.00;1.20;;;7.00;99.90;;;;;;5076351;28;20045;-73
2022/09/22 00:33:47;;;;;;;1.85;1.05;;;6.80;99.90;;;;;;5076773;28;20480;-74
2022/09/22 00:36:14;;;;;;;1.75;1.10;;;6.80;99.90;;;;;;5076003;28;20493;-73
2022/09/22 00:38:41;;;;;;;1.80;0.95;;;6.70;99.90;;;;;;5076244;28;20049;-74
2022/09/22 00:41:14;;;;;;;3.15;0.82;;;6.70;99.90;;;;;;5076827;28;20036;-73
2022/09/22 00:43:41;;;;;;;1.83;0.90;;;6.60;99.90;;;;;;5075168;28;20056;-74
2022/09/22 00:46:14;;;;;;;2.42;0.90;;;6.50;99.90;;;;;;5075186;28;20059;-73
2022/09/22 00:48:46;;;;;;;1.65;0.80;;;6.50;99.90;;;;;;5075515;28;20052;-74
2022/09/22 00:51:17;;;;;;;1.33;0.70;;;6.50;99.90;;;;;;5079156;28;20195;-74
2022/09/22 00:53:43;;;;;;;3.38;0.70;;;6.50;99.90;;;;;;5078106;28;20055;-74
2022/09/22 00:56:15;;;;;;;1.90;0.93;;;6.40;99.90;;;;;;5075174;28;20123;-74
2022/09/22 00:58:50;;;;;;;2.15;0.85;;;6.40;99.90;;;;;;5075911;28;20106;-74
2022/09/22 01:01:15;;;;;;;1.65;0.80;;;6.50;99.90;;;;;;5075499;28;20465;-74
2022/09/22 01:03:42;;;;;;;2.55;0.88;;;7.10;99.90;;;;;;5074647;28;20051;-74
2022/09/22 01:06:13;;;;;;;3.13;1.00;;;6.40;99.90;;;;;;5058048;28;20045;-74
2022/09/22 01:08:39;;;;;;;1.85;0.90;;;6.90;99.90;;;;;;5075131;28;20071;-74
2022/09/22 01:11:07;;;;;;;1.83;0.95;;;6.40;99.90;;;;;;5074402;28;20544;-74
2022/09/22 01:13:55;;;;;;;4.22;1.05;;;6.40;99.90;;;;;;5075527;28;20068;-74
2022/09/22 01:16:36;;;;;;;3.70;1.10;;;6.40;99.90;;;;;;5075226;28;20135;-74
2022/09/22 01:19:43;;;;;;;1.75;0.95;;;6.50;99.90;;;;;;5075262;28;20127;-74
2022/09/22 01:22:35;;;;;;;2.00;0.90;;;6.50;99.90;;;;;;5053320;28;20057;-74
2022/09/22 01:25:38;;;;;;;1.50;0.73;;;6.50;99.90;;;;;;5076006;28;20045;-74
2022/09/22 01:28:38;;;;;;;2.58;1.20;;;6.50;99.90;;;;;;5075077;28;20094;-74
2022/09/22 01:31:26;;;;;;;2.33;1.00;;;6.50;99.90;;;;;;5075291;28;20075;-74
2022/09/22 01:34:14;;;;;;;1.42;0.95;;;6.60;99.90;;;;;;5074850;28;20044;-74
2022/09/22 01:36:48;;;;;;;3.13;1.00;;;6.60;99.90;;;;;;5074998;28;20072;-74
2022/09/22 01:39:20;;;;;;;2.00;1.00;;;6.50;99.90;;;;;;5075681;28;20045;-74
2022/09/22 01:41:59;;;;;;;2.28;1.25;;;6.80;99.90;;;;;;5074466;28;20087;-74
2022/09/22 01:44:36;;;;;;;2.15;1.00;;;6.60;99.90;;;;;;5075582;28;20049;-74
2022/09/22 01:47:13;;;;;;;2.33;0.85;;;6.60;99.90;;;;;;5075077;28;20059;-74
2022/09/22 01:49:44;;;;;;;2.00;1.02;;;6.60;99.90;;;;;;5075742;28;20127;-73
2022/09/22 01:52:21;;;;;;;1.67;1.02;;;6.60;99.90;;;;;;5074820;28;20481;-74
2022/09/22 01:54:58;;;;;;;1.52;0.90;;;6.60;99.90;;;;;;5075632;28;20048;-73
2022/09/22 01:57:36;;;;;;;2.08;1.05;;;6.60;99.90;;;;;;5074831;28;20091;-73
2022/09/22 02:00:06;;;;;;;3.35;0.98;;;6.60;99.90;;;;;;5073535;28;20044;-75
2022/09/22 02:02:48;;;;;;;2.15;0.93;;;6.60;99.90;;;;;;5073725;28;20056;-74
2022/09/22 02:05:42;;;;;;;3.17;0.88;;;6.50;99.90;;;;;;5073840;28;20056;-74
2022/09/22 02:08:22;;;;;;;1.95;1.00;;;6.50;99.90;;;;;;5071902;28;20109;-74
2022/09/22 02:10:49;;;;;;;2.35;0.77;;;6.90;99.90;;;;;;5075272;28;20048;-74
2022/09/22 02:13:15;;;;;;;2.15;0.90;;;6.50;99.90;;;;;;5073178;28;20145;-74
2022/09/22 02:16:00;;;;;;;2.63;1.20;;;6.40;99.90;;;;;;5074159;28;20128;-74
2022/09/22 02:18:28;;;;;;;2.88;1.15;;;6.40;99.90;;;;;;5059380;28;20092;-74
2022/09/22 02:20:55;;;;;;;1.73;0.82;;;6.50;99.90;;;;;;5073496;28;20036;-74
2022/09/22 02:23:20;;;;;;;2.28;1.35;;;6.80;99.90;;;;;;5074255;28;20474;-73
2022/09/22 02:25:47;;;;;;;2.05;0.90;;;6.50;99.90;;;;;;5073231;28;20044;-74
2022/09/22 02:28:17;;;;;;;1.85;0.90;;;6.70;99.90;;;;;;5074384;28;20405;-73
2022/09/22 02:30:47;;;;;;;2.13;0.80;;;6.40;99.90;;;;;;5073053;28;20417;-74
2022/09/22 02:33:13;;;;;;;2.15;1.02;;;6.40;99.90;;;;;;5072953;28;20044;-74
2022/09/22 02:35:44;;;;;;;1.90;1.17;;;6.40;99.90;;;;;;5073956;28;20048;-74
2022/09/22 02:38:21;;;;;;;2.78;1.10;;;6.30;99.90;;;;;;5074529;28;20179;-73
2022/09/22 02:41:09;;;;;;;1.80;1.05;;;6.30;99.90;;;;;;5073929;28;20044;-74
2022/09/22 02:44:04;;;;;;;2.78;1.00;;;6.40;99.90;;;;;;5073946;28;20040;-73
2022/09/22 02:46:54;;;;;;;1.88;1.00;;;6.40;99.90;;;;;;5072589;28;20052;-74
2022/09/22 02:49:21;;;;;;;1.50;0.90;;;7.40;99.90;;;;;;5073728;28;20083;-74
2022/09/22 02:51:48;;;;;;;2.60;1.55;;;6.60;99.90;;;;;;5073722;28;20059;-74
2022/09/22 02:54:14;;;;;;;2.30;1.08;;;6.40;99.90;;;;;;5073604;28;20079;-75
2022/09/22 02:56:41;;;;;;;2.88;1.42;;;6.40;99.90;;;;;;5072507;28;20084;-74
2022/09/22 02:59:08;;;;;;;8.15;1.73;;;6.40;99.90;;;;;;5073522;28;20055;-74
2022/09/22 03:01:34;;;;;;;2.30;1.40;;;6.30;99.90;;;;;;5072566;28;20059;-76
2022/09/22 03:04:01;;;;;;;2.38;1.33;;;6.30;99.90;;;;;;5073580;28;20460;-74
2022/09/22 03:06:26;;;;;;;3.30;1.40;;;6.30;99.90;;;;;;5073558;28;20405;-74
2022/09/22 03:08:52;;;;;;;3.17;1.60;;;6.30;99.90;;;;;;5073868;28;20063;-74
2022/09/22 03:11:18;;;;;;;2.10;1.38;;;6.40;99.90;;;;;;5073409;28;20056;-74
2022/09/22 03:13:43;;;;;;;3.80;1.60;;;6.60;99.90;;;;;;5072960;28;20037;-73
2022/09/22 03:16:09;;;;;;;2.95;1.90;;;6.40;99.90;;;;;;5073446;28;20044;-74
2022/09/22 03:18:35;;;;;;;3.00;1.92;;;6.40;99.90;;;;;;5073312;28;20489;-74
2022/09/22 03:21:00;;;;;;;2.92;1.58;;;6.40;99.90;;;;;;5071361;28;20044;-74
2022/09/22 03:23:26;;;;;;;3.65;1.80;;;6.50;99.90;;;;;;5056153;28;20473;-74
2022/09/22 03:25:52;;;;;;;3.42;1.70;;;6.40;99.90;;;;;;5073341;28;20044;-74
2022/09/22 03:28:18;;;;;;;2.88;1.40;;;6.30;99.90;;;;;;5055632;28;20036;-74
2022/09/22 03:30:43;;;;;;;2.45;1.50;;;6.70;99.90;;;;;;5072286;28;20144;-74
2022/09/22 03:33:09;;;;;;;2.88;1.23;;;6.20;99.90;;;;;;5073169;28;20127;-74
2022/09/22 03:35:35;;;;;;;2.20;1.40;;;6.20;99.90;;;;;;5073222;28;20446;-73
2022/09/22 03:38:00;;;;;;;2.25;1.55;;;6.10;99.90;;;;;;5072933;28;20094;-74
2022/09/22 03:40:26;;;;;;;2.90;1.67;;;6.10;99.90;;;;;;5073186;28;20051;-74
2022/09/22 03:42:52;;;;;;;2.67;1.60;;;6.10;99.90;;;;;;5071986;28;20060;-73
2022/09/22 03:45:18;;;;;;;2.33;1.85;;;6.10;99.90;;;;;;5071915;28;20452;-74
2022/09/22 03:47:43;;;;;;;3.22;2.28;;;6.10;99.90;;;;;;5072325;28;20379;-74
2022/09/22 03:50:09;;;;;;;4.07;2.55;;;6.10;99.90;;;;;;5071800;28;20465;-74
2022/09/22 03:52:35;;;;;;;4.63;2.05;;;6.10;99.90;;;;;;5073033;28;20048;-74
2022/09/22 03:55:01;;;;;;;2.85;2.10;;;6.20;99.90;;;;;;5073009;28;20040;-73
2022/09/22 03:57:28;;;;;;;4.15;2.25;;;6.20;99.90;;;;;;5072997;28;20103;-74
2022/09/22 03:59:53;;;;;;;3.95;2.45;;;6.20;99.90;;;;;;5073805;28;20123;-74
2022/09/22 04:02:19;;;;;;;3.83;2.72;;;6.20;99.90;;;;;;5071683;28;20087;-73
2022/09/22 04:04:45;;;;;;;3.55;3.00;;;6.40;99.90;;;;;;5072630;28;20041;-74
2022/09/22 04:07:10;;;;;;;3.25;2.30;;;6.20;99.90;;;;;;5072929;28;20489;-74
2022/09/22 04:09:36;;;;;;;3.63;2.60;;;6.20;99.90;;;;;;5072450;28;20088;-74
2022/09/22 04:12:02;;;;;;;3.58;2.40;;;6.10;99.90;;;;;;5072527;28;20068;-74
2022/09/22 04:14:28;;;;;;;2.45;1.75;;;6.10;99.90;;;;;;5071664;28;20052;-73
2022/09/22 04:16:53;;;;;;;2.60;1.50;;;6.10;99.90;;;;;;5071803;28;20041;-74
2022/09/22 04:19:19;;;;;;;2.75;1.73;;;6.70;99.90;;;;;;5072797;28;20477;-74
2022/09/22 04:21:45;;;;;;;2.60;1.90;;;6.10;99.90;;;;;;5071773;28;20036;-74
2022/09/22 04:24:10;;;;;;;2.50;1.80;;;6.60;99.90;;;;;;5072996;28;20059;-74
2022/09/22 04:26:39;;;;;;;2.92;1.75;;;6.10;99.90;;;;;;5073521;28;20453;-73
2022/09/22 04:29:05;;;;;;;2.22;1.40;;;6.10;99.90;;;;;;5055685;28;20044;-74
2022/09/22 04:31:30;;;;;;;2.85;1.42;;;6.40;99.90;;;;;;5074928;28;20448;-74
2022/09/22 04:33:56;;;;;;;3.28;1.73;;;6.30;99.90;;;;;;5059084;28;20044;-74
2022/09/22 04:36:22;;;;;;;2.13;1.50;;;6.10;99.90;;;;;;5075116;28;20044;-73
2022/09/22 04:38:47;;;;;;;2.20;1.42;;;6.00;99.90;;;;;;5075538;28;20048;-74
2022/09/22 04:41:13;;;;;;;2.10;1.70;;;6.20;99.90;;;;;;5076250;28;20472;-74
2022/09/22 04:43:39;;;;;;;3.30;2.05;;;6.00;99.90;;;;;;5076669;28;20420;-73
2022/09/22 04:46:05;;;;;;;2.85;2.30;;;6.00;99.90;;;;;;5075107;28;20056;-74
2022/09/22 04:48:31;;;;;;;3.15;2.38;;;6.00;99.90;;;;;;5076752;28;20040;-74
2022/09/22 04:50:56;;;;;;;3.65;1.77;;;6.20;99.90;;;;;;5060645;28;20080;-74
2022/09/22 04:53:22;;;;;;;2.00;1.42;;;6.40;99.90;;;;;;5077844;28;20088;-74
2022/09/22 04:55:49;;;;;;;3.42;2.38;;;6.00;99.90;;;;;;5058852;28;20056;-74
2022/09/22 04:58:15;;;;;;;3.45;2.45;;;6.30;99.90;;;;;;5076706;28;20049;-73
2022/09/22 05:00:41;;;;;;;2.58;2.25;;;6.00;99.90;;;;;;5075901;28;20374;-74
2022/09/22 05:03:08;;;;;;;2.95;2.08;;;6.20;99.90;;;;;;5074733;28;20044;-74
2022/09/22 05:05:34;;;;;;;3.85;2.90;;;5.90;99.90;;;;;;5074778;28;20382;-74
2022/09/22 05:08:00;;;;;;;3.60;2.85;;;5.90;99.90;;;;;;5074306;28;20056;-74
2022/09/22 05:10:29;;;;;;;5.22;3.28;;;6.00;99.90;;;;;;5074515;28;20048;-74
2022/09/22 05:12:55;;;;;;;4.43;3.47;;;6.40;99.90;;;;;;5075533;28;20052;-73
2022/09/22 05:15:21;;;;;;;5.18;3.67;;;6.00;99.90;;;;;;5057840;28;20044;-73
2022/09/22 05:17:52;;;;;;;4.30;3.55;;;6.00;99.90;;;;;;5073736;28;20080;-73
2022/09/22 05:20:19;;;;;;;4.63;4.10;;;6.00;99.90;;;;;;5075388;28;20047;-74
2022/09/22 05:22:46;;;;;;;5.10;4.00;;;6.30;99.90;;;;;;5075930;28;20047;-74
2022/09/22 05:25:15;;;;;;;3.80;3.40;;;6.20;99.90;;;;;;5075488;28;20092;-73
2022/09/22 05:27:52;;;;;;;5.72;3.25;;;6.00;99.90;;;;;;5075052;28;20596;-74
2022/09/22 05:30:20;;;;;;;3.38;2.50;;;6.00;99.90;;;;;;5075954;28;20372;-74
2022/09/22 05:32:47;;;;;;;4.57;2.53;;;5.90;99.90;;;;;;5074205;28;20045;-73
2022/09/22 05:35:16;;;;;;;4.75;3.10;;;6.10;99.90;;;;;;5074021;28;20052;-73
2022/09/22 05:37:43;;;;;;;3.72;3.08;;;6.00;99.90;;;;;;5075097;28;20048;-74
2022/09/22 05:40:10;;;;;;;4.25;3.20;;;6.40;99.90;;;;;;5075126;28;20047;-73
2022/09/22 05:42:46;;;;;;;2.22;1.80;;;6.00;99.90;;;;;;5073097;28;20056;-74
2022/09/22 05:45:13;;;;;;;2.55;2.03;;;6.00;99.90;;;;;;5075799;28;20127;-74
2022/09/22 05:47:39;;;;;;;2.90;2.22;;;6.00;99.90;;;;;;5074567;28;20394;-73
2022/09/22 05:50:06;;;;;;;3.33;2.30;;;6.10;99.90;;;;;;5073647;28;20044;-74
2022/09/22 05:52:32;;;;;;;3.05;2.00;;;6.10;99.90;;;;;;5074796;28;20106;-73
2022/09/22 05:54:58;;;;;;;2.53;1.77;;;6.30;99.90;;;;;;5074153;28;20048;-74
2022/09/22 05:57:26;;;;;;;4.15;2.03;;;6.10;99.90;;;;;;5057977;28;20101;-74
2022/09/22 05:59:52;;;;;;;3.97;2.17;;;6.40;99.90;;;;;;5074766;28;20516;-74
2022/09/22 06:02:18;;;;;;;2.53;2.00;;;6.20;99.90;;;;;;5073751;28;20076;-74
2022/09/22 06:04:44;;;;;;;2.85;2.30;;;6.20;99.90;;;;;;5074571;28;20512;-74
2022/09/22 06:07:09;;;;;;;3.10;2.25;;;6.20;99.90;;;;;;5074079;28;20207;-74
2022/09/22 06:09:35;;;;;;;3.50;2.80;;;6.20;99.90;;;;;;5075168;28;20088;-73
2022/09/22 06:12:01;;;;;;;3.22;2.72;;;6.20;99.90;;;;;;5074891;28;20538;-69
2022/09/22 06:14:27;;;;;;;3.63;3.30;;;6.30;99.90;;;;;;5074526;28;20543;-68
2022/09/22 06:16:53;;;;;;;3.90;3.13;;;6.30;99.90;;;;;;5075052;28;20084;-68
2022/09/22 06:19:19;;;;;;;3.50;2.55;;;6.40;99.90;;;;;;5074811;28;20044;-68
2022/09/22 06:21:45;;;;;;;3.85;3.08;;;6.40;99.90;;;;;;5074765;28;20049;-68
2022/09/22 06:24:11;;;;;;;3.38;2.70;;;6.50;99.90;;;;;;5073491;28;20067;-68
2022/09/22 06:26:37;;;;;;;4.70;3.50;;;6.50;99.90;;;;;;5073810;28;20508;-68
2022/09/22 06:29:03;;;;;;;3.45;3.15;;;6.60;99.90;;;;;;5073677;28;20044;-68
2022/09/22 06:31:28;;;;;;;3.90;3.30;;;6.70;99.90;;;;;;5074256;28;20081;-68
2022/09/22 06:33:54;;;;;;;9.70;4.47;;;6.70;99.90;;;;;;5072890;28;20044;-68
2022/09/22 06:36:30;;;;;;;8.25;3.75;;;6.80;99.90;;;;;;5074168;28;20115;-68
2022/09/22 06:38:59;;;;;;;4.07;3.40;;;6.90;99.90;;;;;;5073961;28;20111;-68
2022/09/22 06:41:30;;;;;;;5.72;4.18;;;6.90;99.90;;;;;;5073920;28;20048;-68
2022/09/22 06:43:56;;;;;;;5.22;4.28;;;7.00;99.90;;;;;;5073868;28;20037;-68
2022/09/22 06:46:26;;;;;;;5.43;3.90;;;7.00;99.90;;;;;;5073846;28;20048;-68
2022/09/22 06:48:56;;;;;;;4.82;3.80;;;7.10;99.90;;;;;;5072797;28;20489;-68
2022/09/22 06:51:32;;;;;;;5.15;4.18;;;7.20;99.90;;;;;;5073968;28;20428;-68
2022/09/22 06:54:00;;;;;;;4.55;3.97;;;7.30;99.90;;;;;;5074276;28;20385;-68
2022/09/22 06:56:27;;;;;;;6.25;4.45;;;7.40;99.90;;;;;;5073654;28;20401;-68
2022/09/22 06:58:54;;;;;;;5.93;4.18;;;7.50;99.90;;;;;;5073623;28;20051;-68
2022/09/22 07:01:22;;;;;;;5.15;4.30;;;7.70;99.90;;;;;;5073645;28;20121;-68
2022/09/22 07:03:48;;;;;;;6.20;4.00;;;7.80;99.90;;;;;;5074309;28;20163;-68
2022/09/22 07:06:17;;;;;;;4.43;3.97;;;7.90;99.90;;;;;;5073465;28;20059;-68
2022/09/22 07:08:45;;;;;;;5.25;4.10;;;8.10;99.90;;;;;;5073312;28;20074;-68
2022/09/22 07:11:12;;;;;;;5.32;4.25;;;8.20;99.90;;;;;;5073597;28;20048;-68
2022/09/22 07:13:41;;;;;;;7.05;4.53;;;8.30;99.90;;;;;;5073383;28;20091;-68
2022/09/22 07:16:19;;;;;;;7.97;4.20;;;8.40;99.90;;;;;;5073949;28;20381;-68
2022/09/22 07:18:47;;;;;;;5.80;4.15;;;8.70;99.90;;;;;;5073477;28;20044;-68
2022/09/22 07:21:16;;;;;;;7.05;4.60;;;8.70;99.90;;;;;;5072937;28;20512;-68
2022/09/22 07:23:43;;;;;;;5.03;3.92;;;8.80;99.90;;;;;;5073337;28;20053;-69
2022/09/22 07:26:14;;;;;;;6.07;4.50;;;9.00;99.90;;;;;;5072304;28;20048;-68
2022/09/22 07:28:41;;;;;;;5.07;4.28;;;9.20;99.90;;;;;;5072294;28;20091;-69
2022/09/22 07:31:15;;;;;;;5.47;4.50;;;9.30;99.90;;;;;;5073239;28;20078;-69
2022/09/22 07:33:42;;;;;;;5.47;4.20;;;9.40;99.90;;;;;;5073101;28;20470;-69
2022/09/22 07:36:18;;;;;;;6.07;4.60;;;9.60;99.90;;;;;;5072599;28;20370;-67
2022/09/22 07:38:49;;;;;;;7.22;4.95;;;9.80;99.90;;;;;;5072010;28;20048;-69
2022/09/22 07:41:20;;;;;;;5.80;4.53;;;10.00;99.90;;;;;;5073079;28;20040;-68
2022/09/22 07:43:49;;;;;;;6.55;4.50;;;10.10;99.90;;;;;;5073650;28;20084;-68
2022/09/22 07:46:14;;;;;;;6.25;4.80;;;10.20;99.90;;;;;;5073773;28;20083;-68
2022/09/22 07:48:46;;;;;;;6.32;4.95;;;10.40;99.90;;;;;;5071873;28;20490;-68
2022/09/22 07:51:20;;;;;;;5.70;4.65;;;10.50;99.90;;;;;;5073524;28;20044;-68
2022/09/22 07:54:01;;;;;;;5.45;4.40;;;10.70;99.90;;;;;;5071828;28;20041;-68
2022/09/22 07:56:29;;;;;;;6.50;4.95;;;10.80;99.90;;;;;;5072277;28;20082;-68
2022/09/22 07:58:54;;;;;;;6.63;5.15;;;11.00;99.90;;;;;;5072991;28;20059;-68
2022/09/22 08:01:22;;;;;;;6.25;4.53;;;11.10;99.90;;;;;;5073628;28;20045;-73
2022/09/22 08:03:49;;;;;;;7.30;5.13;;;11.30;99.90;;;;;;5072936;28;20048;-68
2022/09/22 08:06:18;;;;;;;7.03;5.50;;;11.40;99.90;;;;;;5074782;28;20427;-68
2022/09/22 08:08:47;;;;;;;8.32;5.35;;;11.50;99.90;;;;;;5076946;28;20064;-68
2022/09/22 08:11:16;;;;;;;4.85;4.15;;;11.70;99.90;;;;;;5076721;28;20112;-68
2022/09/22 08:13:51;;;;;;;6.13;3.58;;;11.80;99.90;;;;;;5076633;28;20095;-69
2022/09/22 08:16:17;;;;;;;3.95;3.30;;;11.90;99.90;;;;;;5077239;28;20052;-69
2022/09/22 08:18:43;;;;;;;5.65;3.78;;;12.00;99.90;;;;;;5076363;28;20474;-69
2022/09/22 08:21:09;;;;;;;6.47;3.90;;;12.20;99.90;;;;;;5076544;28;20037;-69
2022/09/22 08:23:36;;;;;;;5.97;4.55;;;12.30;99.90;;;;;;5076522;28;20055;-69
2022/09/22 08:26:07;;;;;;;5.47;3.90;;;12.50;99.90;;;;;;5076420;28;20264;-70
2022/09/22 08:28:33;;;;;;;5.15;4.07;;;12.60;99.90;;;;;;5076423;28;20523;-69
2022/09/22 08:30:59;;;;;;;4.82;3.72;;;12.80;99.90;;;;;;5076350;28;20080;-69
2022/09/22 08:33:27;;;;;;;4.15;3.20;;;12.90;99.90;;;;;;5075141;28;20485;-70
2022/09/22 08:35:56;;;;;;;5.40;3.58;;;13.00;99.90;;;;;;5075121;28;20049;-68
2022/09/22 08:38:22;;;;;;;4.05;3.50;;;13.10;99.90;;;;;;5076011;28;20055;-68
2022/09/22 08:41:04;;;;;;;5.72;4.00;;;13.20;99.90;;;;;;5076232;28;20048;-69
2022/09/22 08:43:31;;;;;;;4.68;3.33;;;13.40;99.90;;;;;;5076214;28;20139;-69
2022/09/22 08:45:57;;;;;;;4.50;3.42;;;13.40;99.90;;;;;;5076215;28;20052;-69
2022/09/22 08:54:01;;;;;;;4.35;2.15;;;13.80;99.90;;;;;;5077331;28;20056;-69
2022/09/22 08:56:33;;;;;;;3.22;1.70;;;13.90;99.90;;;;;;5076206;28;20052;-69
2022/09/22 08:59:09;;;;;;;3.63;2.10;;;14.00;99.90;;;;;;5076145;28;20045;-69
2022/09/22 09:02:19;;;;;;;3.55;1.63;;;14.20;99.90;;;;;;5075613;28;20136;-70
2022/09/22 09:05:03;;;;;;;4.68;1.95;;;14.30;99.90;;;;;;5042442;28;20126;-70
2022/09/22 09:07:49;;;;;;;2.47;1.70;;;14.40;99.90;;;;;;5075170;28;20453;-68
2022/09/22 09:10:38;;;;;;;4.93;2.10;;;14.50;99.90;;;;;;5075549;28;20090;-68
2022/09/22 09:13:32;;;;;;;3.88;1.70;;;14.60;99.90;;;;;;5075868;28;20041;-69
2022/09/22 09:16:15;;;;;;;3.00;1.65;;;14.70;99.90;;;;;;5075558;28;20050;-69
2022/09/22 09:18:47;;;;;;;4.75;2.42;;;14.80;99.90;;;;;;5073480;28;20440;-69
2022/09/22 09:21:14;;;;;;;3.47;1.30;;;14.90;99.90;;;;;;5075116;28;20060;-67
2022/09/22 09:23:52;;;;;;;3.38;1.75;;;15.00;99.90;;;;;;5075190;28;20123;-68
2022/09/22 09:26:18;;;;;;;2.85;1.50;;;15.10;99.90;;;;;;5075394;28;20052;-67
2022/09/22 09:28:51;;;;;;;3.95;1.73;;;15.10;99.90;;;;;;5075505;28;20511;-69
2022/09/22 09:31:32;;;;;;;3.13;1.60;;;15.20;99.90;;;;;;5075310;28;20070;-68
2022/09/22 09:34:13;;;;;;;4.10;1.75;;;15.30;99.90;;;;;;5075474;28;20420;-69
2022/09/22 09:36:41;;;;;;;3.92;1.70;;;15.40;99.90;;;;;;5075554;28;20045;-69
2022/09/22 09:39:17;;;;;;;2.78;1.70;;;15.50;99.90;;;;;;5075126;28;20087;-68
2022/09/22 09:41:48;;;;;;;3.13;1.48;;;15.50;99.90;;;;;;5075621;28;20059;-69
2022/09/22 09:44:25;;;;;;;2.97;1.50;;;15.70;99.90;;;;;;5074238;28;20052;-70
2022/09/22 09:47:16;;;;;;;3.13;1.40;;;15.70;99.90;;;;;;5075816;28;20381;-67
2022/09/22 09:49:42;;;;;;;3.65;1.70;;;15.90;99.90;;;;;;5075336;28;20127;-67
2022/09/22 09:52:13;;;;;;;2.40;1.50;;;16.00;99.90;;;;;;5073951;28;20055;-68
2022/09/22 09:54:44;;;;;;;3.00;1.40;;;16.00;99.90;;;;;;5074622;28;20087;-67
2022/09/22 09:57:17;;;;;;;4.50;1.70;;;16.20;99.90;;;;;;5074681;28;20130;-71
2022/09/22 10:02:31;;;;;;;2.92;1.73;;;16.30;99.90;;;;;;5075309;28;20186;-67
2022/09/22 10:05:03;;;;;;;3.90;1.60;;;16.40;99.90;;;;;;5074525;28;20048;-69
2022/09/22 10:07:39;;;;;;;4.03;1.88;;;16.40;99.90;;;;;;5057206;28;20151;-69
2022/09/22 10:10:32;;;;;;;2.88;1.70;;;16.50;99.90;;;;;;5075307;28;20080;-69
2022/09/22 10:13:04;;;;;;;3.60;1.73;;;16.50;99.90;;;;;;5073479;28;20055;-68
2022/09/22 10:15:32;;;;;;;3.22;1.80;;;16.50;99.90;;;;;;5074338;28;20048;-69
2022/09/22 10:17:58;;;;;;;4.13;1.67;;;16.60;99.90;;;;;;5073994;28;20060;-70
2022/09/22 10:20:26;;;;;;;4.18;1.70;;;16.50;99.90;;;;;;5074226;28;20053;-69
2022/09/22 10:22:53;;;;;;;3.92;1.75;;;16.40;99.90;;;;;;5070414;28;20048;-69
2022/09/22 10:25:22;;;;;;;4.18;1.52;;;16.40;99.90;;;;;;5073849;28;20123;-69
2022/09/22 10:28:08;;;;;;;2.75;1.65;;;16.40;99.90;;;;;;5073014;28;20052;-68
2022/09/22 10:30:38;;;;;;;2.88;1.40;;;16.40;99.90;;;;;;5073579;28;20052;-68
2022/09/22 10:33:05;;;;;;;3.45;1.73;;;16.50;99.90;;;;;;5073704;28;20090;-69
2022/09/22 10:35:35;;;;;;;4.63;1.20;;;16.50;99.90;;;;;;5073913;28;20055;-67
2022/09/22 10:38:11;;;;;;;2.50;1.50;;;16.50;99.90;;;;;;5074032;28;20423;-69
2022/09/22 10:40:40;;;;;;;2.30;0.90;;;16.50;99.90;;;;;;5073946;28;20044;-69
2022/09/22 10:43:20;;;;;;;2.95;1.20;;;16.50;99.90;;;;;;5073816;28;20033;-71
2022/09/22 10:46:31;;;;;;;2.10;1.30;;;16.60;99.90;;;;;;5074292;28;20056;-68
2022/09/22 10:49:22;;;;;;;3.17;1.40;;;16.60;99.90;;;;;;5073637;28;20056;-68
2022/09/22 10:52:09;;;;;;;3.35;1.27;;;16.50;99.90;;;;;;5074135;28;20048;-67
2022/09/22 10:54:50;;;;;;;3.53;1.38;;;16.50;99.90;;;;;;5073421;28;20047;-68
2022/09/22 10:57:50;;;;;;;3.15;1.58;;;16.50;99.90;;;;;;5073622;28;20046;-68
2022/09/22 11:00:21;;;;;;;3.08;1.30;;;16.60;99.90;;;;;;5074041;28;20048;-65
2022/09/22 11:03:15;;;;;;;3.03;1.75;;;16.60;99.90;;;;;;5072970;28;20127;-66
2022/09/22 11:12:29;;;;;;;3.45;1.73;;;16.40;99.90;;;;;;5063407;28;20504;-64
2022/09/22 11:15:12;;;;;;;3.25;1.98;;;16.40;99.90;;;;;;5073400;28;20478;-64
2022/09/22 11:17:48;;;;;;;2.97;2.13;;;16.40;99.90;;;;;;5073858;28;20051;-65
2022/09/22 11:20:40;;;;;;;3.53;1.83;;;16.20;99.90;;;;;;5073587;28;20048;-65
2022/09/22 11:23:28;;;;;;;3.17;1.80;;;16.20;99.90;;;;;;5073162;28;20048;-65
2022/09/22 11:26:23;;;;;;;2.92;2.00;;;16.30;99.90;;;;;;5073381;28;20493;-64
2022/09/22 11:29:08;;;;;;;2.67;2.05;;;16.20;99.90;;;;;;5073334;28;20041;-65
2022/09/22 11:31:42;;;;;;;3.65;1.88;;;16.30;99.90;;;;;;5072566;28;20044;-65
2022/09/22 11:34:26;;;;;;;3.17;1.88;;;16.40;99.90;;;;;;5073183;28;20041;-65
2022/09/22 11:37:24;;;;;;;3.60;1.95;;;16.40;99.90;;;;;;5072286;28;20091;-65
2022/09/22 11:40:08;;;;;;;3.85;2.50;;;16.50;99.90;;;;;;5072973;28;20051;-65
2022/09/22 11:42:36;;;;;;;3.10;2.38;;;16.40;99.90;;;;;;5073649;28;20055;-65
2022/09/22 11:45:21;;;;;;;3.75;2.10;;;16.30;99.90;;;;;;5072965;28;20060;-65
2022/09/22 11:48:05;;;;;;;4.20;2.35;;;16.30;99.90;;;;;;5072398;28;20056;-65
2022/09/22 11:51:14;;;;;;;3.90;2.20;;;16.40;99.90;;;;;;5073108;28;20055;-66
2022/09/22 11:54:26;;;;;;;3.70;2.70;;;16.60;99.90;;;;;;5030874;28;20041;-65
2022/09/22 11:57:01;;;;;;;4.38;2.40;;;16.90;99.90;;;;;;5031318;28;20046;-65
2022/09/22 11:59:39;;;;;;;4.10;2.35;;;17.00;99.90;;;;;;5046245;28;20063;-65
2022/09/22 12:02:31;;;;;;;4.72;2.42;;;17.10;99.90;;;;;;5073465;28;20546;-65
2022/09/22 12:05:12;;;;;;;2.78;2.47;;;17.00;99.90;;;;;;5072677;28;20497;-66
2022/09/22 12:08:05;;;;;;;4.45;2.88;;;17.10;99.90;;;;;;5072918;28;20064;-65
2022/09/22 12:10:43;;;;;;;4.75;2.90;;;16.90;99.90;;;;;;5072862;28;20049;-65
2022/09/22 12:13:25;;;;;;;4.90;2.88;;;16.60;99.90;;;;;;5072851;28;20048;-65
2022/09/22 12:16:05;;;;;;;3.83;2.60;;;16.50;99.90;;;;;;5072799;28;20048;-67
2022/09/22 12:18:45;;;;;;;3.70;2.67;;;16.30;99.90;;;;;;5072822;28;20174;-65
2022/09/22 12:21:42;;;;;;;3.15;2.60;;;16.30;99.90;;;;;;5073552;28;20472;-65
2022/09/22 12:24:08;;;;;;;;;;;16.30;99.90;;;;;;5072239;28;20095;-65
2022/09/22 12:26:39;;;;;;;3.28;2.63;;;16.40;99.90;;;;;;5072770;28;19928;-66
2022/09/22 12:29:15;;;;;;;4.88;2.60;;;16.40;99.90;;;;;;5073301;28;20387;-65
2022/09/22 12:31:47;;;;;;;4.60;3.03;;;16.50;99.90;;;;;;5072673;28;20098;-66
2022/09/22 12:34:25;;;;;;;3.10;2.53;;;16.70;99.90;;;;;;5072669;28;20044;-66
2022/09/22 12:36:58;;;;;;;3.65;2.60;;;16.80;99.90;;;;;;5071980;28;20092;-66
2022/09/22 12:39:28;;;;;;;4.03;2.38;;;16.80;99.90;;;;;;5072612;28;20052;-66
2022/09/22 12:42:01;;;;;;;4.55;2.33;;;16.80;99.90;;;;;;5072604;28;20045;-65
2022/09/22 12:44:31;;;;;;;3.20;2.60;;;16.60;99.90;;;;;;5073353;28;20040;-65
2022/09/22 12:47:18;;;;;;;4.75;2.60;;;16.50;99.90;;;;;;5072601;28;20508;-65
2022/09/22 12:49:52;;;;;;;3.35;2.25;;;16.40;99.90;;;;;;5073073;28;20080;-65
2022/09/22 12:52:40;;;;;;;4.05;2.33;;;16.40;99.90;;;;;;5073908;28;20049;-65
2022/09/22 12:55:27;;;;;;;3.88;2.25;;;16.40;99.90;;;;;;5076079;28;20084;-65
2022/09/22 12:58:01;;;;;;;3.10;2.50;;;16.40;99.90;;;;;;5076652;28;20154;-65
2022/09/22 13:00:42;;;;;;;4.10;1.95;;;16.50;99.90;;;;;;5075966;28;20136;-66
2022/09/22 13:03:26;;;;;;;4.43;2.30;;;16.60;99.90;;;;;;5076307;28;20098;-66
2022/09/22 13:06:02;;;;;;;4.40;2.42;;;16.70;99.90;;;;;;5075893;28;20136;-66
2022/09/22 13:08:54;;;;;;;5.13;2.00;;;16.80;99.90;;;;;;5074683;28;20053;-66
2022/09/22 13:11:58;;;;;;;3.42;2.08;;;17.00;99.90;;;;;;5055885;28;20052;-66
2022/09/22 13:14:55;;;;;;;4.47;2.20;;;17.10;99.90;;;;;;5074667;28;20052;-65
2022/09/22 13:17:41;;;;;;;2.88;2.10;;;17.10;99.90;;;;;;5074433;28;20052;-65
2022/09/22 13:20:30;;;;;;;2.80;2.00;;;17.20;99.90;;;;;;5075610;28;20083;-66
2022/09/22 13:23:14;;;;;;;2.78;1.92;;;17.20;99.90;;;;;;5075619;28;20040;-65
2022/09/22 13:25:41;;;;;;;3.75;2.50;;;17.20;99.90;;;;;;5075855;28;20098;-65
2022/09/22 13:28:12;;;;;;;3.08;2.38;;;17.10;99.90;;;;;;5075776;28;20080;-66
2022/09/22 13:30:40;;;;;;;2.53;1.98;;;17.10;99.90;;;;;;5076475;28;20092;-66
2022/09/22 13:33:18;;;;;;;3.40;2.25;;;17.00;99.90;;;;;;5075272;28;20048;-65
2022/09/22 13:35:44;;;;;;;5.75;2.50;;;16.90;99.90;;;;;;5075305;28;20041;-65
2022/09/22 13:38:13;;;;;;;3.28;2.50;;;16.80;99.90;;;;;;5075275;28;20135;-65